INDIA METEOROLOGICAL DEPARTMENT, R.M.C. NEW DELHI
Dated:25 - 5 - 2017
METARS


Agartala   
VEAT 251000Z 22005KT 6000 SCT020 37/26 Q1001 NOSIG =
Ahmedabad  
VAAH 251000Z 25012KT 6000 NSC 42/20 Q1001 NOSIG=
Allahabad  
VEAB 250830Z 34006KT 6000 FEW030 FEW040TCU SCT100 45/16 Q1000 NOSIG=
Amritsar   
VIAR 251000Z 28009KT 4500 DU FEW040 SCT100 41/15 Q1000 NOSIG=
Aurangabad 
VAAU 250900Z 23004KT 6000 SCT020 SCT025 41/17 Q1006 NOSIG=
Bangalore  
VOBL 251000Z 32009KT 280V360 9999 FEW015 SCT080 31/19 Q1009 NOSIG=
Baroda     
VABO 251000Z 27008KT 6000 NSC 40/20 Q1001 NOSIG=
Bhaunagar  
VABV 251000Z 13012KT 7000 NSC 39/23 Q1002=
Bhopal     
VABP 251000Z 30004KT 6000 SCT030 42/10 Q1003=
Bhubaneswar
VEBS 251000Z 21016KT 6000 NSC 36/25 Q1001 NOSIG =
Chennai    
VOMM 251000Z 10007KT 7000 FEW020 SCT100 35/26 Q1001 NOSIG=
Coimbatore 
VOCB 251000Z 18014G24KT 7000 FEW015 FEW020TCU 34/23 Q1005 NOSIG=
Colombo    
VCBI 251010Z 23011KT 9999 SCT018 FEW020CB 30/25 Q1006 NOSIG RMK E/SE/S=
Delhi      
VIDP 251000Z 04005G15KT 3500 HZ SCT040 41/13 Q1001 NOSIG =
Dehradun   
VIDN 251000Z 28008KT 5000 HZ SCT040 38/15 Q1002 =
Gauhati    
VEGT 251000Z 02007KT 6000 FEW020 33/26 Q1002 NOSIG=
Gaya       
VEGY 251000Z 34008KT 6000 FEW018 SCT025 44/15 Q0998=
Gaggal     
VIGG 251000Z 35006KT 6000 BKN035 33/16 Q1005=
Goa        
VOGO 250930Z 28010G15KT 6000 FEW020 FEW090 33/24 Q1005 NOSIG=
Fursatganj 
VERB 251000Z VRB02KT 5000 HZ FEW020 SCT100 BKN200 43/20 Q0997=
Hyderabad  
VOHS 251000Z 08004KT 6000 FEW020 41/21 Q1004 NOSIG=
Imphal     
VEIM 251000Z 32010KT 5000 HZ FEW020 31/22 Q1006 NOSIG =
Indore     
VAID 251000Z 28011KT 6000 FEW025 42/18 Q1004 NOSIG =
Jabalpur   
VAJB 250900Z 32010KT 6000 SCT030 43/14 Q1003=
Jaipur     
VIJP 251000Z 30007KT 5000 HZ SCT035 41/09 Q1002 NOSIG=
Khajuraho  
VEKO 250900Z 27008KT 6000 SCT025 44/17 Q1000=
Kochi      
VOCI 251000Z 30010KT 4000 HZ FEW012 SCT018 BKN080 32/27 Q1005 NOSIG=
Kolkata    
VECC 251000Z 24012KT 4000 HZ FEW020 36/21 Q1001 NOSIG=
Kozhikode  
VOCL 251000Z 30010KT 7000 FEW015 FEW025CB 33/23 Q1004 NOSIG=
Lucknow    
VILK 251000Z VRB02KT 3500 HZ SCT020 SCT025 BKN100 45/20 Q0998 NOSIG=
Ludhiana   
VILD 250900Z 26006KT 5000 HZ FEW030 41/14 Q1001=
Madurai    
VOMD 251000Z 00000KT 7000 FEW020 SCT100 38/23 Q1003 NOSIG=
Mohanbari  
VEMN 251003Z 03006KT 2500 -RA FEW008 SCT018 FEW025CB OVC090 23/22 Q1006 NOSIG=
Mumbai     
VABB 251000Z 27011KT 7000 FEW020 32/25 Q1004 NOSIG=
Nagpur     
VANP 251000Z 24013KT 4000 HZ FEW020 SCT025 FEW030CB 40/13 Q1001 NOSIG=
Patna      
VEPT 251000Z 10010KT 5000 HZ FEW020 42/22 Q0998 NOSIG=
Raipur     
VERP 250900Z 20003KT 7000 FEW030 45/14 Q1001 NOSIG=
Safdarjung 
VIDD 250930Z 09003KT 4000 HZ FEW035 SCT100 41/19 Q1000 NOSIG=
Ranchi     
VERC 251000Z 21004KT 6000 SCT018 SCT025 FEW030CB 40/15 Q1004 NOSIG =
Trichy     
VOTR 251000Z 29010KT 6000 FEW018 SCT100 38/20 Q1001 NOSIG=
Trivandrum 
VOTV 251000Z 25008KT 4500 HZ FEW015 SCT020 FEW025CB BKN080 30/26 Q1005 NOSIG=
Udaipur    
VAUD 251000Z 34006KT 4000 -TSDZ SCT025 SCT030 FEW035CB 34/16 Q1005 TEMPO 3000 TSRA=
Varanasi   
VEBN 250930Z 29007KT 5000 HZ FEW025 44/17 Q0998 NOSIG=
Vizag      
VOVZ 251000Z 20010KT 6000 FEW018 SCT220 35/27 Q1001 NOSIG =
Male       
VRMM 251000Z 22014KT 8000 -RA SCT016 FEW017CB OVC100 26/25 Q1009 CB NE,W TEMPO 4000 SHRA=
Gan        
VRMG 251000Z 20009KT 9999 FEW018TCU BKN260 31/25 Q1009 NOSIG=
Kathmandu  
VNKT 251020Z 25008KT 7000 -RA FEW020 FEW025CB SCT030 BKN100 23/17 Q1011 NOSIG CB TO NW AND SE=
Dhaka      
VGHS 251000Z 18008KT 4000 HZ SCT015 35/22 Q1001 NOSIG=
Colombo    
VCBI 251010Z 23011KT 9999 SCT018 FEW020CB 30/25 Q1006 NOSIG RMK E/SE/S=
Karachi    
OPKC 250955Z 26018KT 6000 FEW020 36/21 Q1002 TEMPO 26018G25KT=
Lahore     
OPLA 250955Z 30004KT 6000 FEW100 42/14 Q1000 A29.55 NOSIG=
Sri Nagar  
VISR 250930Z VRB02KT 6000 FEW025 28/13 Q1015 NOSIG=
Jammu      
VIJU 250930Z 28005KT 6000 FEW025 41/13 Q1000 NOSIG=
Jodhpur    
VIJO 250930Z 26005KT 6000 SKC 42/18 Q1002 NOSIG=
Bhuj-Rudra 
VABJ 250930Z 26010G20KT 6000 SKC 40/20 Q1003 NOSIG=
Gorakhpur  
VEGK 250930Z 29004KT 6000 SCT030 42/16 Q0999 NOSIG=
Agra       
VIAG 250930Z 26005KT 6000 FEW030 42/16 Q1000 NOSIG =
Bagdogra   
VEBD 250930Z 09006KT 6000 FEW025 34/27 Q1002 NOSIG =
Gwalior    
VIGR 250900Z 00000KT 5000 HZ NSC 42/18 Q1001=
Pune       
VAPO 250930Z 32008G18KT 6000 FEW030 37/18 Q1008 NOSIG=